createdAt,value
2022-10-22T00:00:13.485Z,96.31
2022-10-22T00:01:15.986Z,96.36
2022-10-22T00:02:13.441Z,96.15
2022-10-22T00:03:13.436Z,96.46
2022-10-22T00:04:13.426Z,96.56
2022-10-22T00:05:13.482Z,96.71
2022-10-22T00:06:13.394Z,96.66
2022-10-22T00:07:14.378Z,96.46
2022-10-22T00:08:14.376Z,97.17
2022-10-22T00:09:13.470Z,96.26
2022-10-22T00:10:13.364Z,97.13
2022-10-22T00:11:13.349Z,96.51
2022-10-22T00:12:13.355Z,96.62
2022-10-22T00:13:13.349Z,96.22
2022-10-22T00:14:13.323Z,96.22
2022-10-22T00:15:13.326Z,96.17
2022-10-22T00:16:13.323Z,96.11
2022-10-22T00:17:13.296Z,96.07
2022-10-22T00:18:13.287Z,96.07
2022-10-22T00:19:13.273Z,95.91
2022-10-22T00:20:13.261Z,95.81
2022-10-22T00:21:13.271Z,95.56
2022-10-22T00:22:13.241Z,95.81
2022-10-22T00:23:13.249Z,95.66
2022-10-22T00:24:13.217Z,95.71
2022-10-22T00:25:13.219Z,95.66
2022-10-22T00:26:13.210Z,95.81
2022-10-22T00:27:13.191Z,95.66
2022-10-22T00:28:13.205Z,95.81
2022-10-22T00:29:13.169Z,95.81
2022-10-22T00:30:13.158Z,95.61
2022-10-22T00:31:13.160Z,95.61
2022-10-22T00:32:13.138Z,95.61
2022-10-22T00:33:13.136Z,95.26
2022-10-22T00:34:13.135Z,95.61
2022-10-22T00:35:13.122Z,95.40
2022-10-22T00:36:13.168Z,95.30
2022-10-22T00:37:13.086Z,95.40
2022-10-22T00:38:13.093Z,95.40
2022-10-22T00:39:13.076Z,95.81
2022-10-22T00:40:13.064Z,95.61
2022-10-22T00:41:13.078Z,95.71
2022-10-22T00:42:13.042Z,95.71
2022-10-22T00:43:13.038Z,95.61
2022-10-22T00:44:13.025Z,95.81
2022-10-22T00:45:13.014Z,95.81
2022-10-22T00:46:12.996Z,95.71
2022-10-22T00:47:13.018Z,95.81
2022-10-22T00:48:12.979Z,96.06
2022-10-22T00:49:12.985Z,95.75
2022-10-22T00:50:12.999Z,96.22
2022-10-22T00:51:12.969Z,96.26
2022-10-22T00:52:12.957Z,96.22
2022-10-22T00:53:12.936Z,96.22
2022-10-22T00:54:12.930Z,96.15
2022-10-22T00:55:12.929Z,96.11
2022-10-22T00:56:12.916Z,96.31
2022-10-22T00:57:12.895Z,96.22
2022-10-22T00:58:12.883Z,96.11
2022-10-22T00:59:12.878Z,96.22
2022-10-22T01:00:12.865Z,96.22
2022-10-22T01:01:12.905Z,96.22
2022-10-22T01:02:12.840Z,96.11
2022-10-22T01:03:12.829Z,95.61
2022-10-22T01:04:12.839Z,96.22
2022-10-22T01:05:12.854Z,96.01
2022-10-22T01:06:12.831Z,95.71
2022-10-22T01:07:12.797Z,95.50
2022-10-22T01:08:12.788Z,95.56
2022-10-22T01:09:12.774Z,95.56
2022-10-22T01:10:12.770Z,95.61
2022-10-22T01:11:12.755Z,95.81
2022-10-22T01:12:12.760Z,95.61
2022-10-22T01:13:12.758Z,95.61
2022-10-22T01:14:12.748Z,95.40
2022-10-22T01:15:12.716Z,95.61
2022-10-22T01:16:12.724Z,95.40
2022-10-22T01:17:12.732Z,95.40
2022-10-22T01:18:12.685Z,95.50
2022-10-22T01:19:12.701Z,95.36
2022-10-22T01:20:12.668Z,95.40
2022-10-22T01:21:12.666Z,95.40
2022-10-22T01:22:12.653Z,95.50
2022-10-22T01:23:12.640Z,95.40
2022-10-22T01:24:12.637Z,95.30
2022-10-22T01:25:12.653Z,95.30
2022-10-22T01:26:12.649Z,95.20
2022-10-22T01:27:12.612Z,95.10
2022-10-22T01:28:12.605Z,95.30
2022-10-22T01:29:12.592Z,95.30
2022-10-22T01:30:12.592Z,95.40
2022-10-22T01:31:12.576Z,95.40
2022-10-22T01:32:12.556Z,95.20
2022-10-22T01:33:12.547Z,95.30
2022-10-22T01:34:12.528Z,95.30
2022-10-22T01:35:12.571Z,95.20
2022-10-22T01:36:12.514Z,95.35
2022-10-22T01:37:12.504Z,95.35
2022-10-22T01:38:12.501Z,95.55
2022-10-22T01:39:12.473Z,95.75
2022-10-22T01:40:12.511Z,95.35
2022-10-22T01:41:12.473Z,95.45
2022-10-22T01:42:12.443Z,95.35
2022-10-22T01:43:12.445Z,95.55
2022-10-22T01:44:12.432Z,95.71
2022-10-22T01:45:12.429Z,95.75
2022-10-22T01:46:12.416Z,95.30
2022-10-22T01:47:12.406Z,95.50
2022-10-22T01:48:12.401Z,95.20
2022-10-22T01:49:12.381Z,95.25
2022-10-22T01:50:12.394Z,95.25
2022-10-22T01:51:12.386Z,95.25
2022-10-22T01:52:12.348Z,95.30
2022-10-22T01:53:12.350Z,95.86
2022-10-22T01:54:12.330Z,95.75
2022-10-22T01:55:12.312Z,95.75
2022-10-22T01:56:12.327Z,95.86
2022-10-22T01:57:12.300Z,96.06
2022-10-22T01:58:12.301Z,96.15
2022-10-22T01:59:12.286Z,96.15
2022-10-22T02:00:12.272Z,96.15
2022-10-22T02:01:12.332Z,96.06
2022-10-22T02:02:12.255Z,96.10
2022-10-22T02:03:13.244Z,97.11
2022-10-22T02:04:12.236Z,97.22
2022-10-22T02:05:12.246Z,96.51
2022-10-22T02:06:12.209Z,97.22
2022-10-22T02:07:12.197Z,97.11
2022-10-22T02:08:12.185Z,97.11
2022-10-22T02:09:12.223Z,97.11
2022-10-22T02:10:12.190Z,97.32
2022-10-22T02:11:12.153Z,97.22
2022-10-22T02:12:12.157Z,97.11
2022-10-22T02:13:12.158Z,97.32
2022-10-22T02:14:12.128Z,96.71
2022-10-22T02:15:12.118Z,97.16
2022-10-22T02:16:12.123Z,96.81
2022-10-22T02:17:12.104Z,97.02
2022-10-22T02:18:12.101Z,96.91
2022-10-22T02:19:12.079Z,96.91
2022-10-22T02:20:12.076Z,97.02
2022-10-22T02:21:12.083Z,96.51
2022-10-22T02:22:12.047Z,96.71
2022-10-22T02:23:12.039Z,96.51
2022-10-22T02:24:12.027Z,96.51
2022-10-22T02:25:12.019Z,96.15
2022-10-22T02:26:12.046Z,96.51
2022-10-22T02:27:12.010Z,96.20
2022-10-22T02:28:11.998Z,96.30
2022-10-22T02:29:11.975Z,96.46
2022-10-22T02:30:12.030Z,96.20
2022-10-22T02:31:11.983Z,96.15
2022-10-22T02:32:11.960Z,96.30
2022-10-22T02:33:11.957Z,96.30
2022-10-22T02:34:11.955Z,96.20
2022-10-22T02:35:11.923Z,96.41
2022-10-22T02:36:11.939Z,96.41
2022-10-22T02:37:11.908Z,96.20
2022-10-22T02:38:12.027Z,96.81
2022-10-22T02:39:11.906Z,96.56
2022-10-22T02:40:11.862Z,96.41
2022-10-22T02:41:11.851Z,96.15
2022-10-22T02:42:11.870Z,96.30
2022-10-22T02:43:11.856Z,96.10
2022-10-22T02:44:11.832Z,95.70
2022-10-22T02:45:11.888Z,96.41
2022-10-22T02:46:11.822Z,96.61
2022-10-22T02:47:11.805Z,96.41
2022-10-22T02:48:11.872Z,96.81
2022-10-22T02:49:11.791Z,97.11
2022-10-22T02:50:11.797Z,97.32
2022-10-22T02:51:43.665Z,96.71
2022-10-22T02:52:11.771Z,97.22
2022-10-22T02:53:11.754Z,97.02
2022-10-22T02:54:11.738Z,96.20
2022-10-22T02:55:11.718Z,96.41
2022-10-22T02:56:11.716Z,96.20
2022-10-22T02:57:11.761Z,96.30
2022-10-22T02:58:11.717Z,96.30
2022-10-22T02:59:11.690Z,96.71
2022-10-22T03:00:11.695Z,96.10
2022-10-22T03:01:15.215Z,96.61
2022-10-22T03:02:11.650Z,97.11
2022-10-22T03:03:11.643Z,96.41
2022-10-22T03:04:11.660Z,97.02
2022-10-22T03:05:11.620Z,96.30
2022-10-22T03:06:11.682Z,97.11
2022-10-22T03:07:11.605Z,96.61
2022-10-22T03:08:11.589Z,97.22
2022-10-22T03:09:12.622Z,97.22
2022-10-22T03:10:11.568Z,97.11
2022-10-22T03:11:11.563Z,96.71
2022-10-22T03:12:11.554Z,97.22
2022-10-22T03:13:11.548Z,96.51
2022-10-22T03:14:11.547Z,97.22
2022-10-22T03:15:11.540Z,97.02
2022-10-22T03:16:11.513Z,97.17
2022-10-22T03:17:11.504Z,96.30
2022-10-22T03:18:11.504Z,96.10
2022-10-22T03:19:11.546Z,96.41
2022-10-22T03:20:11.485Z,96.35
2022-10-22T03:21:11.491Z,96.86
2022-10-22T03:22:11.460Z,97.06
2022-10-22T03:23:11.451Z,97.26
2022-10-22T03:24:11.463Z,97.22
2022-10-22T03:25:11.437Z,97.02
2022-10-22T03:26:11.433Z,96.61
2022-10-22T03:27:11.416Z,96.71
2022-10-22T03:28:11.405Z,97.22
2022-10-22T03:29:11.394Z,97.32
2022-10-22T03:30:11.378Z,96.61
2022-10-22T03:31:11.366Z,96.41
2022-10-22T03:32:11.353Z,97.26
2022-10-22T03:33:11.369Z,97.16
2022-10-22T03:34:11.329Z,96.66
2022-10-22T03:35:11.338Z,96.71
2022-10-22T03:36:11.316Z,97.22
2022-10-22T03:37:11.324Z,96.75
2022-10-22T03:38:11.275Z,97.32
2022-10-22T03:39:11.281Z,96.30
2022-10-22T03:40:11.282Z,96.81
2022-10-22T03:41:11.242Z,96.20
2022-10-22T03:42:12.263Z,96.35
2022-10-22T03:43:11.231Z,96.41
2022-10-22T03:44:11.229Z,96.30
2022-10-22T03:45:11.224Z,96.10
2022-10-22T03:46:12.206Z,96.20
2022-10-22T03:47:11.216Z,96.25
2022-10-22T03:48:11.221Z,96.30
2022-10-22T03:49:11.173Z,96.41
2022-10-22T03:50:11.164Z,96.35
2022-10-22T03:51:11.154Z,96.25
2022-10-22T03:52:11.153Z,96.51
2022-10-22T03:53:11.130Z,96.30
2022-10-22T03:54:11.143Z,96.35
2022-10-22T03:55:11.132Z,96.41
2022-10-22T03:56:11.111Z,96.20
2022-10-22T03:57:11.120Z,96.20
2022-10-22T03:58:11.114Z,96.20
2022-10-22T03:59:11.071Z,96.25
2022-10-22T04:00:11.058Z,96.30
2022-10-22T04:01:11.120Z,96.00
2022-10-22T04:02:11.045Z,96.00
2022-10-22T04:03:11.051Z,96.00
2022-10-22T04:04:11.016Z,96.20
2022-10-22T04:05:11.086Z,95.79
2022-10-22T04:06:11.011Z,95.90
2022-10-22T04:07:10.999Z,95.94
2022-10-22T04:08:10.997Z,96.15
2022-10-22T04:09:11.017Z,96.10
2022-10-22T04:10:10.967Z,96.15
2022-10-22T04:11:10.944Z,96.41
2022-10-22T04:12:10.953Z,96.25
2022-10-22T04:13:10.941Z,96.25
2022-10-22T04:14:10.928Z,96.51
2022-10-22T04:15:10.914Z,96.45
2022-10-22T04:16:10.923Z,96.04
2022-10-22T04:17:10.899Z,96.55
2022-10-22T04:18:10.890Z,96.45
2022-10-22T04:19:10.870Z,96.45
2022-10-22T04:20:10.861Z,96.66
2022-10-22T04:21:10.859Z,96.55
2022-10-22T04:22:10.868Z,97.61
2022-10-22T04:23:10.829Z,97.00
2022-10-22T04:24:10.820Z,97.61
2022-10-22T04:25:10.818Z,97.71
2022-10-22T04:26:10.807Z,98.12
2022-10-22T04:27:10.816Z,98.02
2022-10-22T04:28:10.783Z,98.32
2022-10-22T04:29:13.575Z,97.92
2022-10-22T04:30:11.762Z,98.02
2022-10-22T04:31:10.759Z,98.02
2022-10-22T04:32:10.745Z,98.12
2022-10-22T04:33:10.746Z,98.32
2022-10-22T04:34:10.733Z,98.12
2022-10-22T04:35:10.713Z,98.43
2022-10-22T04:36:10.702Z,98.32
2022-10-22T04:37:10.718Z,98.07
2022-10-22T04:38:10.680Z,98.37
2022-10-22T04:39:10.671Z,98.68
2022-10-22T04:40:10.666Z,98.68
2022-10-22T04:41:10.670Z,98.77
2022-10-22T04:42:10.670Z,98.68
2022-10-22T04:43:10.635Z,98.77
2022-10-22T04:44:13.635Z,98.88
2022-10-22T04:45:11.623Z,98.57
2022-10-22T04:46:10.609Z,98.57
2022-10-22T04:47:10.602Z,98.68
2022-10-22T04:48:10.600Z,98.97
2022-10-22T04:49:10.577Z,98.77
2022-10-22T04:50:10.580Z,98.88
2022-10-22T04:51:10.614Z,98.47
2022-10-22T04:52:10.542Z,98.47
2022-10-22T04:53:10.527Z,98.47
2022-10-22T04:54:10.514Z,98.68
2022-10-22T04:55:10.511Z,98.68
2022-10-22T04:56:10.520Z,98.57
2022-10-22T04:57:10.507Z,98.47
2022-10-22T04:58:10.479Z,98.68
2022-10-22T04:59:10.476Z,98.57
2022-10-22T05:00:10.467Z,98.52
2022-10-22T05:01:10.562Z,98.47
2022-10-22T05:02:10.462Z,98.52
2022-10-22T05:03:10.431Z,98.12
2022-10-22T05:04:10.434Z,98.02
2022-10-22T05:05:10.410Z,97.92
2022-10-22T05:06:10.435Z,97.71
2022-10-22T05:07:10.406Z,97.31
2022-10-22T05:08:10.410Z,97.51
2022-10-22T05:09:10.493Z,96.96
2022-10-22T05:10:10.378Z,96.90
2022-10-22T05:11:10.366Z,97.20
2022-10-22T05:12:10.383Z,97.06
2022-10-22T05:13:10.349Z,97.26
2022-10-22T05:14:10.322Z,97.06
2022-10-22T05:15:10.308Z,96.66
2022-10-22T05:16:10.309Z,96.15
2022-10-22T05:17:10.311Z,96.45
2022-10-22T05:18:10.278Z,95.84
2022-10-22T05:19:10.265Z,95.74
2022-10-22T05:20:10.283Z,95.84
2022-10-22T05:21:10.248Z,96.15
2022-10-22T05:22:11.224Z,95.84
2022-10-22T05:23:11.251Z,95.94
2022-10-22T05:24:10.220Z,95.64
2022-10-22T05:25:10.211Z,95.74
2022-10-22T05:26:10.197Z,95.64
2022-10-22T05:27:10.225Z,95.94
2022-10-22T05:28:10.197Z,95.43
2022-10-22T05:29:10.165Z,95.64
2022-10-22T05:30:10.163Z,95.43
2022-10-22T05:31:10.159Z,95.94
2022-10-22T05:32:10.133Z,95.94
2022-10-22T05:33:10.144Z,95.94
2022-10-22T05:34:10.112Z,95.43
2022-10-22T05:35:10.109Z,95.54
2022-10-22T05:36:10.112Z,95.84
2022-10-22T05:37:10.089Z,95.79
2022-10-22T05:38:10.073Z,95.89
2022-10-22T05:39:10.075Z,95.74
2022-10-22T05:40:19.505Z,95.68
2022-10-22T05:41:12.079Z,95.48
2022-10-22T05:42:10.032Z,95.58
2022-10-22T05:43:10.033Z,95.89
2022-10-22T05:44:10.012Z,95.48
2022-10-22T05:45:10.016Z,95.34
2022-10-22T05:46:10.076Z,95.34
2022-10-22T05:47:09.992Z,95.54
2022-10-22T05:48:09.962Z,95.84
2022-10-22T05:49:09.957Z,95.28
2022-10-22T05:50:09.966Z,95.28
2022-10-22T05:51:09.969Z,95.68
2022-10-22T05:52:09.929Z,95.79
2022-10-22T05:53:09.917Z,96.09
2022-10-22T05:54:09.940Z,96.54
2022-10-22T05:55:09.898Z,96.09
2022-10-22T05:56:09.892Z,96.34
2022-10-22T05:57:09.904Z,96.30
2022-10-22T05:58:09.863Z,96.34
2022-10-22T05:59:09.855Z,96.19
2022-10-22T06:00:12.832Z,96.23
2022-10-22T06:01:09.850Z,96.19
2022-10-22T06:02:09.911Z,96.39
2022-10-22T06:03:09.819Z,96.19
2022-10-22T06:04:09.806Z,96.23
2022-10-22T06:05:09.805Z,96.44
2022-10-22T06:06:09.789Z,96.34
2022-10-22T06:07:09.797Z,97.25
2022-10-22T06:08:09.779Z,96.59
2022-10-22T06:09:09.794Z,97.56
2022-10-22T06:10:09.738Z,97.05
2022-10-22T06:11:09.771Z,97.40
2022-10-22T06:12:09.731Z,97.71
2022-10-22T06:13:09.726Z,97.20
2022-10-22T06:14:09.718Z,97.09
2022-10-22T06:15:09.759Z,97.20
2022-10-22T06:16:09.691Z,97.09
2022-10-22T06:17:09.674Z,97.50
2022-10-22T06:18:09.686Z,96.89
2022-10-22T06:19:09.681Z,97.50
2022-10-22T06:20:09.655Z,97.09
2022-10-22T06:21:09.662Z,97.24
2022-10-22T06:22:09.654Z,97.30
2022-10-22T06:23:09.624Z,97.96
2022-10-22T06:24:09.611Z,97.34
2022-10-22T06:25:09.598Z,97.04
2022-10-22T06:26:09.607Z,97.34
2022-10-22T06:27:09.580Z,97.50
2022-10-22T06:28:09.572Z,97.09
2022-10-22T06:29:09.571Z,97.20
2022-10-22T06:30:09.557Z,97.34
2022-10-22T06:31:09.578Z,97.09
2022-10-22T06:32:09.542Z,96.89
2022-10-22T06:33:09.519Z,96.69
2022-10-22T06:34:09.509Z,96.63
2022-10-22T06:35:09.504Z,96.69
2022-10-22T06:36:09.526Z,97.24
2022-10-22T06:37:09.495Z,96.73
2022-10-22T06:38:09.474Z,97.34
2022-10-22T06:39:09.499Z,96.83
2022-10-22T06:40:09.468Z,97.20
2022-10-22T06:41:09.446Z,97.34
2022-10-22T06:42:09.439Z,97.34
2022-10-22T06:43:09.426Z,97.34
2022-10-22T06:44:09.439Z,97.04
2022-10-22T06:45:09.429Z,96.33
2022-10-22T06:46:09.393Z,96.53
2022-10-22T06:47:09.386Z,96.73
2022-10-22T06:48:09.381Z,97.24
2022-10-22T06:49:09.390Z,97.44
2022-10-22T06:50:09.389Z,97.34
2022-10-22T06:51:09.358Z,97.34
2022-10-22T06:52:09.339Z,97.04
2022-10-22T06:53:09.360Z,97.34
2022-10-22T06:54:09.334Z,97.24
2022-10-22T06:55:09.302Z,97.50
2022-10-22T06:56:09.307Z,96.73
2022-10-22T06:57:09.314Z,96.73
2022-10-22T06:58:09.277Z,97.24
2022-10-22T06:59:09.272Z,96.59
2022-10-22T07:00:09.256Z,96.53
2022-10-22T07:01:09.353Z,96.38
2022-10-22T07:02:09.236Z,96.18
2022-10-22T07:03:09.233Z,95.98
2022-10-22T07:04:09.229Z,95.87
2022-10-22T07:05:09.219Z,96.03
2022-10-22T07:06:09.221Z,95.53
2022-10-22T07:07:09.186Z,95.53
2022-10-22T07:08:09.199Z,95.12
2022-10-22T07:09:09.280Z,94.87
2022-10-22T07:10:09.219Z,94.12
2022-10-22T07:11:09.142Z,93.81
2022-10-22T07:12:09.132Z,92.86
2022-10-22T07:13:09.159Z,92.45
2022-10-22T07:14:09.120Z,92.10
2022-10-22T07:15:09.104Z,91.11
2022-10-22T07:16:09.114Z,90.91
2022-10-22T07:17:09.111Z,90.31
2022-10-22T07:18:09.073Z,87.36
2022-10-22T07:19:09.064Z,84.65
2022-10-22T07:20:09.056Z,84.07
2022-10-22T07:21:09.042Z,81.87
2022-10-22T07:22:09.069Z,79.82
2022-10-22T07:23:09.023Z,80.19
2022-10-22T07:24:09.062Z,79.54
2022-10-22T07:25:09.009Z,77.39
2022-10-22T07:26:09.015Z,77.36
2022-10-22T07:27:10.974Z,77.22
2022-10-22T07:28:08.994Z,74.98
2022-10-22T07:29:08.966Z,75.38
2022-10-22T07:30:08.954Z,75.48
2022-10-22T07:31:08.954Z,75.78
2022-10-22T07:32:08.951Z,73.97
2022-10-22T07:33:08.936Z,74.68
2022-10-22T07:34:08.974Z,74.57
2022-10-22T07:35:08.910Z,74.84
2022-10-22T07:36:08.897Z,74.54
2022-10-22T07:37:08.904Z,75.42
2022-10-22T07:38:08.881Z,74.68
2022-10-22T07:39:08.861Z,74.48
2022-10-22T07:40:08.868Z,75.68
2022-10-22T07:41:08.874Z,75.35
2022-10-22T07:42:08.839Z,76.15
2022-10-22T07:43:08.836Z,76.83
2022-10-22T07:44:08.823Z,78.91
2022-10-22T07:45:08.827Z,81.15
2022-10-22T07:46:08.836Z,81.82
2022-10-22T07:47:08.800Z,83.12
2022-10-22T07:48:08.780Z,84.83
2022-10-22T07:49:08.766Z,85.08
2022-10-22T07:50:08.777Z,86.02
2022-10-22T07:51:08.790Z,86.77
2022-10-22T07:52:08.763Z,87.73
2022-10-22T07:53:08.741Z,87.52
2022-10-22T07:54:08.760Z,88.74
2022-10-22T07:55:08.729Z,89.18
2022-10-22T07:56:08.701Z,89.79
2022-10-22T07:57:08.717Z,89.28
2022-10-22T07:58:08.692Z,88.68
2022-10-22T07:59:08.664Z,90.20
2022-10-22T08:00:08.656Z,90.20
2022-10-22T08:01:08.716Z,89.99
2022-10-22T08:02:08.670Z,90.54
2022-10-22T08:03:08.636Z,90.75
2022-10-22T08:04:08.638Z,91.11
2022-10-22T08:05:08.613Z,90.70
2022-10-22T08:06:08.601Z,91.00
2022-10-22T08:07:08.583Z,90.50
2022-10-22T08:08:08.577Z,90.30
2022-10-22T08:09:08.641Z,90.60
2022-10-22T08:10:08.577Z,90.20
2022-10-22T08:11:08.641Z,90.60
2022-10-22T08:12:08.542Z,90.80
2022-10-22T08:13:08.558Z,90.40
2022-10-22T08:14:08.542Z,90.40
2022-10-22T08:15:08.525Z,90.20
2022-10-22T08:16:08.529Z,90.84
2022-10-22T08:17:08.488Z,91.55
2022-10-22T08:18:08.487Z,91.66
2022-10-22T08:19:08.506Z,91.35
2022-10-22T08:20:08.461Z,91.55
2022-10-22T08:21:08.545Z,91.50
2022-10-22T08:22:08.462Z,92.00
2022-10-22T08:23:08.448Z,92.00
2022-10-22T08:24:08.443Z,92.61
2022-10-22T08:25:08.446Z,92.61
2022-10-22T08:26:08.417Z,92.91
2022-10-22T08:27:08.406Z,92.51
2022-10-22T08:28:08.383Z,93.22
2022-10-22T08:29:08.391Z,93.37
2022-10-22T08:30:08.406Z,93.57
2022-10-22T08:31:08.443Z,93.77
2022-10-22T08:32:08.362Z,93.93
2022-10-22T08:33:08.334Z,93.83
2022-10-22T08:34:08.349Z,93.83
2022-10-22T08:35:08.353Z,93.52
2022-10-22T08:36:08.315Z,93.87
2022-10-22T08:37:08.290Z,92.82
2022-10-22T08:38:08.288Z,93.42
2022-10-22T08:39:08.266Z,92.82
2022-10-22T08:40:08.277Z,93.52
2022-10-22T08:41:08.265Z,93.48
2022-10-22T08:42:08.236Z,92.57
2022-10-22T08:43:08.233Z,92.57
2022-10-22T08:44:08.234Z,92.26
2022-10-22T08:45:08.237Z,92.82
2022-10-22T08:46:08.208Z,92.67
2022-10-22T08:47:08.193Z,92.77
2022-10-22T08:48:08.178Z,92.16
2022-10-22T08:50:08.195Z,92.77
2022-10-22T08:51:40.055Z,92.22
2022-10-22T08:52:08.144Z,91.71
2022-10-22T08:53:08.129Z,91.61
2022-10-22T08:54:08.131Z,91.82
2022-10-22T08:55:08.108Z,91.82
2022-10-22T08:56:08.127Z,91.92
2022-10-22T08:57:08.089Z,91.61
2022-10-22T08:58:08.096Z,91.11
2022-10-22T08:59:08.069Z,92.12
2022-10-22T09:00:08.061Z,92.52
2022-10-22T09:01:08.047Z,92.77
2022-10-22T09:02:08.040Z,92.26
2022-10-22T09:03:08.064Z,92.32
2022-10-22T09:04:08.017Z,92.36
2022-10-22T09:05:11.510Z,92.12
2022-10-22T09:06:09.007Z,92.02
2022-10-22T09:07:08.008Z,92.16
2022-10-22T09:08:07.991Z,92.12
2022-10-22T09:09:08.038Z,91.66
2022-10-22T09:10:08.962Z,92.06
2022-10-22T09:11:07.951Z,92.26
2022-10-22T09:12:07.952Z,92.12
2022-10-22T09:13:07.936Z,91.96
2022-10-22T09:14:07.966Z,92.06
2022-10-22T09:15:07.916Z,92.26
2022-10-22T09:16:07.900Z,92.36
2022-10-22T09:17:07.893Z,92.47
2022-10-22T09:18:07.888Z,92.63
2022-10-22T09:19:07.900Z,92.77
2022-10-22T09:20:07.867Z,92.72
2022-10-22T09:21:07.852Z,92.42
2022-10-22T09:22:07.830Z,92.22
2022-10-22T09:23:07.836Z,91.71
2022-10-22T09:24:07.848Z,92.22
2022-10-22T09:25:07.834Z,91.92
2022-10-22T09:26:07.799Z,92.22
2022-10-22T09:27:07.792Z,92.18
2022-10-22T09:28:07.789Z,91.27
2022-10-22T09:29:07.776Z,91.27
2022-10-22T09:30:07.807Z,91.53
2022-10-22T09:31:07.784Z,91.42
2022-10-22T09:32:07.749Z,91.32
2022-10-22T09:33:07.745Z,90.82
2022-10-22T09:34:07.737Z,90.62
2022-10-22T09:35:07.718Z,91.32
2022-10-22T09:36:07.762Z,90.72
2022-10-22T09:37:07.684Z,91.12
2022-10-22T09:38:07.674Z,91.32
2022-10-22T09:39:07.726Z,91.32
2022-10-22T09:40:07.673Z,91.22
2022-10-22T09:41:07.645Z,91.02
2022-10-22T09:42:07.659Z,90.78
2022-10-22T09:43:07.628Z,91.38
2022-10-22T09:44:07.617Z,90.88
2022-10-22T09:45:07.617Z,91.12
2022-10-22T09:46:07.607Z,91.53
2022-10-22T09:47:07.625Z,91.53
2022-10-22T09:48:07.577Z,91.42
2022-10-22T09:49:07.577Z,91.08
2022-10-22T09:50:07.558Z,91.18
2022-10-22T09:51:07.547Z,91.22
2022-10-22T09:52:07.541Z,91.18
2022-10-22T09:53:07.563Z,91.22
2022-10-22T09:54:07.547Z,91.08
2022-10-22T09:55:07.513Z,90.83
2022-10-22T09:56:07.493Z,90.73
2022-10-22T09:57:07.492Z,90.53
2022-10-22T09:58:07.487Z,89.72
2022-10-22T09:59:07.492Z,89.68
2022-10-22T10:00:07.460Z,89.07
2022-10-22T10:01:07.457Z,89.07
2022-10-22T10:02:19.777Z,88.37
2022-10-22T10:03:09.471Z,88.37
2022-10-22T10:04:09.832Z,88.93
2022-10-22T10:05:08.418Z,88.63
2022-10-22T10:06:07.404Z,88.32
2022-10-22T10:07:07.390Z,87.92
2022-10-22T10:08:07.390Z,88.53
2022-10-22T10:09:07.457Z,88.02
2022-10-22T10:10:07.360Z,88.23
2022-10-22T10:11:07.370Z,88.53
2022-10-22T10:12:07.354Z,87.58
2022-10-22T10:13:07.334Z,87.68
2022-10-22T10:14:07.318Z,88.14
2022-10-22T10:15:07.307Z,87.63
2022-10-22T10:16:07.325Z,87.25
2022-10-22T10:17:07.290Z,85.94
2022-10-22T10:18:07.281Z,85.08
2022-10-22T10:19:07.282Z,85.72
2022-10-22T10:20:07.258Z,84.61
2022-10-22T10:21:07.306Z,85.56
2022-10-22T10:22:07.230Z,85.76
2022-10-22T10:23:07.236Z,85.90
2022-10-22T10:24:07.223Z,85.76
2022-10-22T10:25:07.213Z,86.16
2022-10-22T10:26:07.231Z,85.70
2022-10-22T10:27:07.200Z,86.47
2022-10-22T10:28:07.191Z,87.21
2022-10-22T10:29:07.183Z,85.96
2022-10-22T10:30:07.193Z,85.90
2022-10-22T10:31:07.161Z,86.47
2022-10-22T10:32:07.143Z,86.07
2022-10-22T10:33:07.156Z,87.18
2022-10-22T10:34:07.125Z,86.02
2022-10-22T10:35:07.124Z,86.43
2022-10-22T10:36:07.110Z,84.41
2022-10-22T10:37:07.094Z,83.80
2022-10-22T10:38:07.108Z,85.72
2022-10-22T10:39:07.080Z,85.82
2022-10-22T10:40:07.089Z,84.41
2022-10-22T10:41:07.066Z,84.67
2022-10-22T10:42:07.107Z,84.41
2022-10-22T10:43:07.038Z,84.67
2022-10-22T10:44:07.040Z,83.46
2022-10-22T10:45:07.060Z,84.13
2022-10-22T10:46:07.079Z,83.72
2022-10-22T10:47:07.029Z,83.52
2022-10-22T10:48:06.999Z,84.23
2022-10-22T10:49:06.984Z,83.08
2022-10-22T10:50:06.983Z,82.68
2022-10-22T10:51:06.961Z,82.68
2022-10-22T10:52:06.978Z,82.58
2022-10-22T10:53:06.961Z,82.18
2022-10-22T10:54:06.943Z,82.68
2022-10-22T10:55:07.860Z,82.78
2022-10-22T10:56:06.920Z,82.58
2022-10-22T10:57:06.943Z,81.67
2022-10-22T10:58:06.917Z,81.67
2022-10-22T10:59:06.882Z,81.37
2022-10-22T11:00:06.886Z,81.41
2022-10-22T11:01:06.863Z,81.17
2022-10-22T11:02:06.867Z,81.47
2022-10-22T11:03:06.879Z,81.67
2022-10-22T11:04:06.857Z,82.04
2022-10-22T11:05:06.823Z,83.20
2022-10-22T11:06:06.820Z,80.58
2022-10-22T11:07:11.460Z,82.10
2022-10-22T11:08:07.824Z,80.55
2022-10-22T11:09:06.844Z,79.88
2022-10-22T11:10:06.766Z,79.92
2022-10-22T11:11:07.895Z,80.22
2022-10-22T11:12:06.759Z,81.13
2022-10-22T11:13:06.746Z,80.83
2022-10-22T11:14:06.766Z,79.62
2022-10-22T11:15:06.737Z,78.65
2022-10-22T11:16:06.716Z,78.75
2022-10-22T11:17:06.713Z,79.76
2022-10-22T11:18:06.707Z,79.90
2022-10-22T11:19:06.707Z,80.06
2022-10-22T11:20:06.687Z,79.46
2022-10-22T11:21:06.674Z,79.76
2022-10-22T11:22:06.699Z,80.73
2022-10-22T11:23:19.391Z,79.82
2022-10-22T11:24:07.654Z,78.91
2022-10-22T11:25:06.645Z,78.81
2022-10-22T11:26:06.632Z,78.25
2022-10-22T11:27:06.623Z,78.25
2022-10-22T11:28:11.138Z,79.02
2022-10-22T11:29:07.596Z,78.11
2022-10-22T11:30:06.583Z,78.27
2022-10-22T11:31:06.574Z,77.33
2022-10-22T11:32:06.615Z,77.20
2022-10-22T11:33:06.562Z,76.79
2022-10-22T11:34:28.446Z,75.55
2022-10-22T11:35:07.565Z,75.11
2022-10-22T11:36:06.514Z,75.92
2022-10-22T11:37:06.512Z,75.42
2022-10-22T11:38:06.527Z,74.27
2022-10-22T11:39:06.560Z,75.21
2022-10-22T11:40:06.487Z,74.27
2022-10-22T11:41:06.496Z,74.18
2022-10-22T11:42:06.470Z,73.07
2022-10-22T11:43:06.475Z,72.87
2022-10-22T11:44:06.471Z,73.41
2022-10-22T11:45:06.442Z,73.47
2022-10-22T11:46:06.430Z,73.17
2022-10-22T11:47:06.423Z,72.60
2022-10-22T11:48:06.422Z,73.50
2022-10-22T11:49:06.401Z,73.71
2022-10-22T11:50:06.392Z,74.95
2022-10-22T11:51:06.403Z,74.24
2022-10-22T11:52:06.366Z,74.44
2022-10-22T11:53:06.385Z,73.78
2022-10-22T11:54:07.067Z,74.48
2022-10-22T11:55:06.338Z,73.88
2022-10-22T11:56:06.352Z,74.48
2022-10-22T11:57:06.340Z,75.52
2022-10-22T11:58:06.303Z,74.92
2022-10-22T11:59:06.289Z,75.35
2022-10-22T12:00:06.315Z,75.66
2022-10-22T12:01:06.276Z,75.05
2022-10-22T12:02:06.293Z,74.15
2022-10-22T12:03:06.260Z,74.75
2022-10-22T12:04:06.284Z,74.95
2022-10-22T12:05:06.252Z,76.10
2022-10-22T12:06:06.252Z,75.59
2022-10-22T12:07:06.227Z,76.06
2022-10-22T12:08:06.206Z,76.87
2022-10-22T12:09:06.278Z,75.76
2022-10-22T12:10:06.190Z,76.30
2022-10-22T12:11:06.209Z,75.79
2022-10-22T12:12:06.172Z,75.49
2022-10-22T12:13:06.163Z,75.70
2022-10-22T12:14:06.180Z,76.43
2022-10-22T12:15:06.143Z,76.94
2022-10-22T12:16:06.137Z,77.44
2022-10-22T12:17:06.164Z,77.24
2022-10-22T12:18:06.152Z,77.84
2022-10-22T12:19:06.117Z,77.40
2022-10-22T12:20:06.108Z,76.64
2022-10-22T12:21:06.097Z,77.00
2022-10-22T12:22:06.109Z,76.64
2022-10-22T12:23:06.066Z,78.11
2022-10-22T12:24:06.052Z,76.40
2022-10-22T12:25:06.046Z,77.37
2022-10-22T12:26:06.027Z,77.07
2022-10-22T12:27:06.046Z,77.67
2022-10-22T12:28:06.021Z,75.86
2022-10-22T12:29:06.017Z,76.36
2022-10-22T12:30:06.003Z,75.52
2022-10-22T12:31:05.995Z,75.35
2022-10-22T12:32:05.976Z,75.49
2022-10-22T12:33:05.997Z,76.97
2022-10-22T12:34:06.245Z,75.35
2022-10-22T12:35:05.963Z,75.66
2022-10-22T12:36:05.948Z,76.26
2022-10-22T12:37:05.940Z,76.36
2022-10-22T12:38:05.941Z,77.17
2022-10-22T12:39:05.960Z,76.70
2022-10-22T12:40:05.891Z,75.99
2022-10-22T12:41:05.905Z,77.11
2022-10-22T12:42:05.911Z,77.40
2022-10-22T12:43:06.927Z,77.20
2022-10-22T12:44:05.911Z,77.24
2022-10-22T12:45:05.867Z,76.94
2022-10-22T12:46:05.844Z,77.14
2022-10-22T12:47:05.843Z,77.44
2022-10-22T12:48:05.838Z,77.95
2022-10-22T12:49:05.831Z,77.64
2022-10-22T12:50:05.838Z,77.34
2022-10-22T12:51:05.795Z,77.34
2022-10-22T12:52:07.699Z,77.84
2022-10-22T12:53:05.776Z,77.84